Time;durP1;ratioP1;P1;durP2;ratioP2;P2;SDS_P1;SDS_P2;PMS_P1;PMS_P2;Temp;Humidity;BMP_temperature;BMP_pressure;BME280_temperature;BME280_humidity;BME280_pressure;Samples;Min_cycle;Max_cycle;Signal;HPM_P1;HPM_P2
2023/09/21 00:04:50;;;;;;;3.83;1.88;;;;;;;19.32;76.56;100204.66;10388348;28;20405;-70
2023/09/21 00:10:13;;;;;;;7.97;1.85;;;;;;;19.32;76.77;100193.34;10400347;28;20069;-70
2023/09/21 00:15:34;;;;;;;3.55;1.50;;;;;;;19.31;76.92;100181.13;10417460;28;20049;-69
2023/09/21 00:20:59;;;;;;;2.72;1.50;;;;;;;19.32;76.79;100183.66;10405228;28;20126;-69
2023/09/21 00:26:21;;;;;;;3.60;1.70;;;;;;;19.31;76.52;100168.88;10412492;28;20069;-69
2023/09/21 00:31:43;;;;;;;4.93;1.55;;;;;;;19.31;76.63;100157.50;10385135;28;20073;-69
2023/09/21 00:37:08;;;;;;;5.55;1.70;;;;;;;19.27;76.49;100148.19;10392794;28;20064;-69
2023/09/21 00:42:30;;;;;;;2.22;1.35;;;;;;;19.32;76.39;100146.09;10373655;28;20037;-69
2023/09/21 00:47:53;;;;;;;4.80;1.65;;;;;;;19.29;76.52;100138.41;10378441;28;20049;-70
2023/09/21 00:53:16;;;;;;;2.65;1.70;;;;;;;19.25;76.21;100129.94;10372137;28;20115;-70
2023/09/21 00:58:44;;;;;;;2.88;1.70;;;;;;;19.20;76.90;100126.00;10396692;28;20378;-70
2023/09/21 01:04:08;;;;;;;4.13;1.98;;;;;;;19.25;76.43;100129.94;10403744;28;20115;-69
2023/09/21 01:09:30;;;;;;;2.33;1.52;;;;;;;19.22;76.54;100116.25;10410516;28;20058;-69
2023/09/21 01:15:13;;;;;;;2.28;1.48;;;;;;;19.23;76.21;100115.31;10383671;28;20048;-70
2023/09/21 01:20:35;;;;;;;4.40;1.80;;;;;;;19.25;76.17;100108.97;10384937;28;20053;-70
2023/09/21 01:25:59;;;;;;;3.42;1.80;;;;;;;19.28;76.05;100110.53;10381931;28;20065;-69
2023/09/21 01:31:21;;;;;;;3.58;1.65;;;;;;;19.21;76.08;100085.72;10387988;28;20042;-69
2023/09/21 01:36:44;;;;;;;2.78;1.45;;;;;;;19.24;75.73;100091.56;10390475;28;20532;-70
2023/09/21 01:42:08;;;;;;;2.30;1.60;;;;;;;19.26;76.03;100089.66;10393108;28;20063;-70
2023/09/21 01:47:30;;;;;;;2.83;1.52;;;;;;;19.24;75.67;100069.72;10396369;28;20048;-69
2023/09/21 01:52:51;;;;;;;3.88;1.80;;;;;;;19.24;75.60;100070.56;10406509;28;20045;-69
2023/09/21 01:58:15;;;;;;;3.65;1.48;;;;;;;19.22;75.71;100061.13;10381232;28;20049;-70
2023/09/21 02:03:36;;;;;;;2.92;1.70;;;;;;;19.15;75.60;100058.16;10382932;28;20045;-69
2023/09/21 02:08:59;;;;;;;5.30;1.50;;;;;;;19.18;75.59;100054.47;10400463;28;20060;-69
2023/09/21 02:14:21;;;;;;;2.20;1.48;;;;;;;19.14;75.52;100040.75;10400411;28;20045;-69
2023/09/21 02:19:43;;;;;;;9.80;1.58;;;;;;;19.16;75.52;100030.13;10394648;28;20054;-69
2023/09/21 02:25:10;;;;;;;5.38;1.80;;;;;;;19.11;75.78;100024.41;10397830;28;20084;-69
2023/09/21 02:30:32;;;;;;;5.72;1.77;;;;;;;19.09;75.75;100021.91;10401193;28;20042;-69
2023/09/21 02:35:54;;;;;;;3.30;1.60;;;;;;;19.04;75.73;100017.00;10395816;28;20057;-69
2023/09/21 02:41:15;;;;;;;4.45;1.40;;;;;;;18.99;75.88;100013.91;10400765;28;20046;-69
2023/09/21 02:46:37;;;;;;;4.13;1.70;;;;;;;18.98;75.75;100004.41;10397528;28;20038;-68
2023/09/21 02:51:59;;;;;;;2.67;1.60;;;;;;;18.97;75.96;100000.09;10396329;28;20487;-70
2023/09/21 02:57:22;;;;;;;2.72;1.60;;;;;;;18.97;75.66;99994.84;10398639;28;20065;-70
2023/09/21 03:02:44;;;;;;;2.90;1.50;;;;;;;18.95;75.95;99986.25;10394985;28;20061;-70
2023/09/21 03:08:16;;;;;;;2.50;1.67;;;;;;;18.94;75.89;99979.38;10398426;28;20052;-70
2023/09/21 03:13:38;;;;;;;1.42;1.33;;;;;;;18.90;75.80;99972.69;10395052;28;20647;-69
2023/09/21 03:19:00;;;;;;;5.78;1.90;;;;;;;18.88;75.98;99969.34;10400347;28;20041;-70
2023/09/21 03:24:22;;;;;;;4.82;1.70;;;;;;;18.85;75.76;99974.84;10397436;28;20041;-69
2023/09/21 03:29:45;;;;;;;2.63;1.58;;;;;;;18.89;76.00;99965.78;10397677;28;20052;-70
2023/09/21 03:35:11;;;;;;;4.45;1.60;;;;;;;18.82;76.06;99953.28;10394016;28;20095;-69
2023/09/21 03:40:33;;;;;;;4.80;1.88;;;;;;;18.78;76.15;99949.22;10395180;28;20140;-69
2023/09/21 03:45:55;;;;;;;3.35;1.90;;;;;;;18.77;76.04;99951.00;10394060;28;20061;-69
2023/09/21 03:51:17;;;;;;;8.18;1.80;;;;;;;18.77;76.11;99940.50;10393388;28;20095;-70
2023/09/21 03:56:39;;;;;;;3.75;1.80;;;;;;;18.77;75.43;99935.25;10409335;28;20602;-70
2023/09/21 04:02:01;;;;;;;3.00;1.85;;;;;;;18.80;75.80;99928.97;10413829;28;20113;-70
2023/09/21 04:07:23;;;;;;;3.10;1.80;;;;;;;18.79;75.91;99937.75;10419599;28;20113;-70
2023/09/21 04:12:45;;;;;;;4.45;1.48;;;;;;;18.83;75.65;99939.19;10395577;28;20145;-69
2023/09/21 04:18:09;;;;;;;3.45;1.98;;;;;;;18.84;75.54;99931.19;10387842;28;20401;-70
2023/09/21 04:23:32;;;;;;;5.03;1.70;;;;;;;18.79;75.44;99938.59;10391683;28;20050;-70
2023/09/21 04:28:53;;;;;;;3.70;1.50;;;;;;;18.81;75.61;99930.59;10394225;28;20041;-70
2023/09/21 04:34:15;;;;;;;3.30;1.60;;;;;;;18.80;75.26;99927.19;10378778;28;20069;-69
2023/09/21 04:39:37;;;;;;;5.53;1.67;;;;;;;18.80;75.36;99926.34;10401119;28;20156;-69
2023/09/21 04:44:59;;;;;;;3.80;1.70;;;;;;;18.77;75.28;99929.22;10378758;28;20496;-69
2023/09/21 04:50:20;;;;;;;1.88;1.50;;;;;;;18.79;75.30;99917.63;10395550;28;20148;-69
2023/09/21 04:55:42;;;;;;;3.25;1.80;;;;;;;18.77;75.30;99922.16;10396380;28;20127;-70
2023/09/21 05:01:10;;;;;;;4.57;1.60;;;;;;;18.76;75.23;99911.78;10371118;28;20043;-70
2023/09/21 05:06:32;;;;;;;5.25;1.70;;;;;;;18.71;75.15;99908.69;10391792;28;20136;-69
2023/09/21 05:11:54;;;;;;;2.85;1.60;;;;;;;18.77;75.34;99903.81;10388358;28;20056;-70
2023/09/21 05:17:16;;;;;;;3.35;1.58;;;;;;;18.77;75.12;99905.63;10389209;28;20084;-70
2023/09/21 05:22:42;;;;;;;5.43;2.03;;;;;;;18.74;74.97;99893.56;10390588;28;20037;-69
2023/09/21 05:28:04;;;;;;;3.03;1.50;;;;;;;18.80;74.87;99889.63;10379656;28;20215;-70
2023/09/21 05:33:26;;;;;;;2.15;1.60;;;;;;;18.82;74.89;99895.59;10390298;28;20056;-70
2023/09/21 05:38:48;;;;;;;4.47;1.73;;;;;;;18.84;74.69;99893.69;10388364;28;20511;-70
2023/09/21 05:44:10;;;;;;;3.90;1.70;;;;;;;18.87;74.31;99891.66;10396049;28;20125;-70
2023/09/21 05:49:34;;;;;;;4.18;1.70;;;;;;;18.90;74.06;99883.53;10388487;28;20057;-69
2023/09/21 05:54:57;;;;;;;3.15;1.63;;;;;;;18.93;74.27;99888.56;10398602;28;20081;-69
2023/09/21 06:00:18;;;;;;;2.92;1.60;;;;;;;18.98;74.19;99896.03;10386022;28;20049;-69
2023/09/21 06:05:45;;;;;;;2.95;1.60;;;;;;;19.02;73.93;99877.31;10383520;28;20049;-69
2023/09/21 06:11:06;;;;;;;2.13;1.60;;;;;;;19.08;73.90;99880.41;10387293;28;20069;-69
2023/09/21 06:16:29;;;;;;;8.63;1.60;;;;;;;19.11;74.01;99895.88;10372233;28;20054;-69
2023/09/21 06:21:56;;;;;;;2.65;1.55;;;;;;;19.11;73.93;99896.72;10383931;28;20157;-69
2023/09/21 06:27:19;;;;;;;3.28;1.80;;;;;;;19.15;73.70;99892.91;10380527;28;20053;-69
2023/09/21 06:32:40;;;;;;;7.13;1.65;;;;;;;19.23;73.67;99908.03;10392784;28;20057;-69
2023/09/21 06:38:03;;;;;;;2.42;1.70;;;;;;;19.30;73.96;99903.97;10386196;28;20076;-70
2023/09/21 06:43:29;;;;;;;4.03;1.67;;;;;;;19.31;73.58;99887.25;10405256;28;20053;-70
2023/09/21 06:48:52;;;;;;;5.18;1.85;;;;;;;19.35;73.80;99884.28;10377763;28;20073;-70
2023/09/21 06:54:15;;;;;;;6.63;1.80;;;;;;;19.47;73.00;99893.78;10397846;28;20077;-70
2023/09/21 06:59:38;;;;;;;6.97;1.80;;;;;;;19.55;73.21;99885.28;10392858;28;20042;-70
2023/09/21 07:05:00;;;;;;;3.22;1.70;;;;;;;19.64;73.21;99880.13;10394840;28;20045;-70
2023/09/21 07:10:22;;;;;;;5.82;1.60;;;;;;;19.70;73.20;99879.63;10396625;28;20187;-70
2023/09/21 07:15:43;;;;;;;1.95;1.50;;;;;;;19.77;72.33;99867.66;10411008;28;20759;-70
2023/09/21 07:21:05;;;;;;;9.23;1.77;;;;;;;19.93;72.30;99885.56;10370624;28;20046;-69
2023/09/21 07:26:27;;;;;;;4.22;1.65;;;;;;;19.93;72.03;99865.41;10410804;28;20060;-70
2023/09/21 07:31:49;;;;;;;5.45;1.60;;;;;;;20.01;71.52;99867.38;10387899;28;20069;-70
2023/09/21 07:37:12;;;;;;;4.50;1.60;;;;;;;20.07;72.29;99872.09;10403613;28;20061;-70
2023/09/21 07:42:34;;;;;;;4.05;1.40;;;;;;;20.16;71.93;99868.72;10380776;28;20128;-70
2023/09/21 07:47:56;;;;;;;2.85;1.40;;;;;;;20.22;72.30;99865.56;10390987;28;20049;-70
2023/09/21 07:53:19;;;;;;;6.47;1.70;;;;;;;20.28;72.29;99853.72;10400095;28;20041;-70
2023/09/21 07:58:41;;;;;;;3.88;1.52;;;;;;;20.41;70.67;99864.84;10407629;28;20092;-70
2023/09/21 08:04:03;;;;;;;2.03;1.35;;;;;;;20.59;70.91;99871.97;10398813;28;20087;-70
2023/09/21 08:09:25;;;;;;;5.00;1.88;;;;;;;20.71;70.56;99863.00;10393684;28;20180;-70
2023/09/21 08:14:53;;;;;;;5.38;1.40;;;;;;;20.90;70.91;99852.56;10391093;28;20143;-69
2023/09/21 08:20:15;;;;;;;4.07;1.70;;;;;;;21.05;69.33;99846.94;10399285;28;20518;-69
2023/09/21 08:25:37;;;;;;;3.45;1.40;;;;;;;21.23;69.97;99855.81;10397653;28;20049;-70
2023/09/21 08:30:59;;;;;;;7.80;1.55;;;;;;;21.33;70.18;99852.22;10382508;28;20706;-69
2023/09/21 08:36:21;;;;;;;2.78;1.58;;;;;;;21.50;68.97;99850.72;10371836;28;20048;-69
2023/09/21 08:41:51;;;;;;;2.95;1.90;;;;;;;21.62;68.47;99865.38;10401554;28;20053;-69
2023/09/21 08:47:14;;;;;;;6.00;1.58;;;;;;;21.74;69.08;99856.34;10391385;28;20037;-70
2023/09/21 08:52:56;;;;;;;6.95;1.50;;;;;;;21.78;69.31;99870.91;10376684;28;20072;-69
2023/09/21 08:58:27;;;;;;;4.53;1.60;;;;;;;21.83;67.39;99860.81;10397620;28;20053;-69
2023/09/21 09:03:49;;;;;;;7.18;1.58;;;;;;;21.94;68.41;99871.19;10387856;28;20049;-69
2023/09/21 09:09:11;;;;;;;6.20;1.65;;;;;;;22.02;69.18;99863.41;10386986;28;20939;-69
2023/09/21 09:14:33;;;;;;;6.68;1.60;;;;;;;22.10;68.44;99873.25;10403031;28;20560;-68
2023/09/21 09:19:55;;;;;;;5.93;1.67;;;;;;;22.14;69.38;99862.25;10396741;28;20263;-68
2023/09/21 09:25:21;;;;;;;2.65;1.70;;;;;;;22.20;69.59;99877.53;10393365;28;20037;-70
2023/09/21 09:30:45;;;;;;;;;;;;;;;22.24;66.63;99878.91;10390078;28;20143;-70
2023/09/21 09:36:06;;;;;;;4.53;1.58;;;;;;;22.27;68.96;99868.06;10391303;28;20007;-68
2023/09/21 09:41:28;;;;;;;4.47;1.83;;;;;;;22.37;69.39;99868.03;10398773;28;20049;-67
2023/09/21 09:46:56;;;;;;;4.25;1.58;;;;;;;22.42;68.18;99861.34;10383269;28;20140;-67
2023/09/21 09:52:20;;;;;;;4.82;1.83;;;;;;;22.53;68.76;99857.69;10388089;28;21140;-68
2023/09/21 09:57:45;;;;;;;3.88;1.77;;;;;;;22.57;70.20;99859.09;10375708;28;20497;-67
2023/09/21 10:03:10;;;;;;;5.10;1.77;;;;;;;22.60;68.50;99857.00;10399147;28;20061;-67
2023/09/21 10:08:32;;;;;;;2.50;1.52;;;;;;;22.76;68.18;99859.00;10382033;28;20468;-67
2023/09/21 10:13:55;;;;;;;4.18;1.58;;;;;;;22.98;67.55;99843.59;10382710;28;20334;-67
2023/09/21 10:19:22;;;;;;;6.68;1.65;;;;;;;23.11;66.80;99842.41;10391483;28;20467;-67
2023/09/21 10:24:49;;;;;;;4.05;1.80;;;;;;;23.25;65.60;99839.22;10369909;28;20049;-67
2023/09/21 10:30:15;;;;;;;2.97;1.77;;;;;;;23.31;67.44;99833.38;10411638;28;20049;-68
2023/09/21 10:35:49;;;;;;;4.65;1.70;;;;;;;23.40;65.04;99841.25;10390805;28;20045;-67
2023/09/21 10:41:28;;;;;;;3.85;1.77;;;;;;;23.41;65.22;99823.56;10394374;28;20726;-67
2023/09/21 10:46:50;;;;;;;4.10;1.80;;;;;;;23.51;67.04;99835.72;10398291;28;20053;-66
2023/09/21 10:52:12;;;;;;;2.38;1.40;;;;;;;23.55;67.46;99836.25;10393305;28;20053;-66
2023/09/21 10:57:34;;;;;;;3.47;1.83;;;;;;;23.63;66.21;99833.66;10379664;28;20074;-67
2023/09/21 11:02:56;;;;;;;3.70;1.60;;;;;;;23.62;65.49;99832.81;10386697;28;20577;-67
2023/09/21 11:08:18;;;;;;;2.08;1.55;;;;;;;23.58;65.56;99833.28;10390678;28;20059;-67
2023/09/21 11:13:40;;;;;;;2.53;1.70;;;;;;;23.57;67.10;99839.53;10404355;28;20363;-67
2023/09/21 11:19:01;;;;;;;4.40;1.80;;;;;;;23.50;65.72;99835.84;10386812;28;20477;-67
2023/09/21 11:24:23;;;;;;;1.80;1.40;;;;;;;23.51;64.19;99840.16;10383812;28;20048;-66
2023/09/21 11:29:46;;;;;;;5.22;1.73;;;;;;;23.56;66.35;99837.91;10390149;28;20045;-67
2023/09/21 11:35:08;;;;;;;9.88;1.45;;;;;;;23.60;67.30;99818.97;10401489;28;20041;-66
2023/09/21 11:40:31;;;;;;;4.07;1.95;;;;;;;23.69;66.17;99815.38;10401042;28;20049;-66
2023/09/21 11:45:53;;;;;;;4.05;1.60;;;;;;;23.65;66.71;99813.19;10400198;28;20037;-67
2023/09/21 11:51:15;;;;;;;2.65;1.52;;;;;;;23.75;67.10;99816.59;10399802;28;20259;-67
2023/09/21 11:56:37;;;;;;;6.07;1.55;;;;;;;23.77;67.59;99798.75;10394556;28;20061;-68
2023/09/21 12:02:00;;;;;;;3.33;1.45;;;;;;;23.79;65.99;99813.47;10374189;28;20041;-67
2023/09/21 12:07:22;;;;;;;2.95;1.60;;;;;;;23.84;66.17;99805.09;10397698;28;20041;-67
2023/09/21 12:12:46;;;;;;;1.50;1.40;;;;;;;23.86;66.78;99795.19;10398029;28;20064;-67
2023/09/21 12:18:12;;;;;;;4.78;1.40;;;;;;;23.88;67.86;99798.47;10395490;28;20045;-67
2023/09/21 12:23:38;;;;;;;4.72;1.60;;;;;;;23.93;66.73;99798.84;10409968;28;20060;-67
2023/09/21 12:29:01;;;;;;;3.70;1.88;;;;;;;23.97;66.40;99808.16;10461838;22;20077;-67
2023/09/21 12:34:22;;;;;;;5.20;1.55;;;;;;;23.97;66.57;99792.28;10453684;28;20044;-66
2023/09/21 12:39:44;;;;;;;2.50;1.40;;;;;;;23.92;66.88;99795.38;10452512;28;20057;-66
2023/09/21 12:45:07;;;;;;;4.65;1.60;;;;;;;23.85;66.68;99796.16;10440646;28;22023;-66
2023/09/21 12:50:29;;;;;;;2.40;1.60;;;;;;;23.80;67.30;99795.81;10446863;28;20078;-66
2023/09/21 12:55:51;;;;;;;4.88;1.65;;;;;;;23.82;67.42;99791.19;10450868;28;20057;-67
2023/09/21 13:01:13;;;;;;;2.53;1.55;;;;;;;23.84;67.22;99799.78;10447834;28;20052;-66
2023/09/21 13:06:36;;;;;;;2.13;1.25;;;;;;;23.82;68.10;99801.75;10452773;28;20488;-67
2023/09/21 13:12:01;;;;;;;2.78;1.58;;;;;;;23.80;67.89;99787.88;10450625;28;20043;-66
2023/09/21 13:17:23;;;;;;;3.33;1.52;;;;;;;23.82;68.33;99788.53;10446083;28;20099;-66
2023/09/21 13:22:46;;;;;;;6.88;1.70;;;;;;;23.85;68.55;99780.28;10448190;28;20045;-66
2023/09/21 13:28:08;;;;;;;6.10;1.73;;;;;;;23.98;67.32;99769.28;10440998;28;20040;-66
2023/09/21 13:33:31;;;;;;;4.13;1.65;;;;;;;24.02;66.49;99768.88;10443414;28;20053;-66
2023/09/21 13:38:53;;;;;;;1.90;1.20;;;;;;;23.98;66.50;99762.19;10430455;28;20073;-67
2023/09/21 13:44:15;;;;;;;2.10;1.58;;;;;;;23.90;67.86;99751.56;10433611;28;20044;-66
2023/09/21 13:49:37;;;;;;;2.45;1.35;;;;;;;23.93;67.56;99753.91;10438278;28;20060;-66
2023/09/21 13:54:59;;;;;;;7.60;1.88;;;;;;;23.86;68.61;99745.78;10440605;28;20572;-66
2023/09/21 14:00:37;;;;;;;2.92;1.70;;;;;;;23.90;67.33;99746.28;10436398;28;20053;-66
2023/09/21 14:05:59;;;;;;;1.98;1.50;;;;;;;23.85;68.11;99746.78;10439745;28;20179;-66
2023/09/21 14:11:21;;;;;;;7.10;1.67;;;;;;;23.85;68.30;99743.28;10440399;28;20053;-66
2023/09/21 14:16:42;;;;;;;3.30;1.33;;;;;;;23.84;69.39;99736.38;10454952;28;20134;-66
2023/09/21 14:22:04;;;;;;;6.88;1.77;;;;;;;23.86;67.35;99734.41;10452326;28;20560;-66
2023/09/21 14:27:26;;;;;;;5.38;1.42;;;;;;;23.83;68.91;99729.41;10443994;28;20066;-66
2023/09/21 14:32:52;;;;;;;5.20;1.90;;;;;;;23.75;68.31;99716.16;10443700;28;20472;-66
2023/09/21 14:38:14;;;;;;;4.13;1.77;;;;;;;23.70;68.65;99715.78;10453224;28;20094;-66
2023/09/21 14:43:35;;;;;;;4.60;2.00;;;;;;;23.65;69.28;99699.56;10445583;28;20519;-66
2023/09/21 14:48:57;;;;;;;2.55;1.58;;;;;;;23.63;68.63;99686.53;10437887;28;20095;-65
2023/09/21 14:54:19;;;;;;;5.03;1.92;;;;;;;23.67;69.46;99676.47;10442456;28;20132;-65
2023/09/21 14:59:40;;;;;;;3.13;1.85;;;;;;;23.66;69.05;99667.72;10438685;28;20083;-65
2023/09/21 15:05:04;;;;;;;4.38;1.25;;;;;;;23.70;69.06;99660.28;10438697;28;20049;-65
2023/09/21 15:10:28;;;;;;;2.58;1.38;;;;;;;23.66;68.71;99651.06;10442843;28;20060;-66
2023/09/21 15:15:53;;;;;;;2.42;1.48;;;;;;;23.61;69.46;99659.44;10459613;28;20143;-65
2023/09/21 15:21:14;;;;;;;2.08;1.50;;;;;;;23.55;68.78;99635.47;10441220;28;20041;-65
2023/09/21 15:26:36;;;;;;;1.52;1.15;;;;;;;23.54;70.61;99623.22;10460464;28;20087;-65
2023/09/21 15:31:59;;;;;;;2.67;1.23;;;;;;;23.54;70.47;99617.94;10464071;28;20088;-65
2023/09/21 15:37:21;;;;;;;3.38;1.65;;;;;;;23.51;70.42;99607.72;10454473;28;20646;-65
2023/09/21 15:42:43;;;;;;;2.58;1.65;;;;;;;23.45;70.94;99593.31;10436806;28;20575;-65
2023/09/21 15:48:05;;;;;;;3.55;1.52;;;;;;;23.43;71.09;99599.72;10420946;28;20049;-66
2023/09/21 15:53:28;;;;;;;5.95;2.10;;;;;;;23.38;73.08;99596.75;10426416;28;20057;-66
2023/09/21 15:58:50;;;;;;;5.38;1.58;;;;;;;23.27;72.64;99573.22;10412314;28;20122;-65
2023/09/21 16:04:16;;;;;;;4.32;1.95;;;;;;;23.20;72.90;99577.47;10429685;28;20041;-65
2023/09/21 16:09:38;;;;;;;5.30;1.85;;;;;;;23.19;72.44;99575.81;10448036;28;20053;-66
2023/09/21 16:15:00;;;;;;;3.50;1.50;;;;;;;23.14;72.91;99578.09;10417791;28;20705;-66
2023/09/21 16:20:22;;;;;;;4.15;1.63;;;;;;;23.12;72.11;99570.34;10392944;28;20485;-66
2023/09/21 16:25:44;;;;;;;3.97;1.60;;;;;;;23.07;72.95;99558.59;10416218;28;20048;-65
2023/09/21 16:31:05;;;;;;;3.47;1.58;;;;;;;23.01;73.68;99538.09;10425931;28;20415;-65
2023/09/21 16:36:27;;;;;;;4.07;1.85;;;;;;;22.94;73.42;99549.28;10433853;28;20049;-66
2023/09/21 16:41:49;;;;;;;3.60;1.77;;;;;;;22.94;73.20;99529.97;10462901;28;20060;-66
2023/09/21 16:47:10;;;;;;;5.32;2.03;;;;;;;22.91;73.60;99520.56;10435475;28;20562;-66
2023/09/21 16:52:32;;;;;;;5.40;2.15;;;;;;;22.87;74.54;99521.84;10435222;28;20056;-66
2023/09/21 16:57:54;;;;;;;5.13;2.17;;;;;;;22.68;75.98;99518.59;10444379;28;20056;-66
2023/09/21 17:03:15;;;;;;;5.43;2.40;;;;;;;22.59;76.25;99541.47;10437676;28;20049;-66
2023/09/21 17:08:37;;;;;;;2.63;1.88;;;;;;;22.45;78.06;99563.06;10433814;28;20114;-66
2023/09/21 17:13:59;;;;;;;4.25;2.35;;;;;;;21.94;80.13;99552.38;10440332;28;20064;-66
2023/09/21 17:19:21;;;;;;;4.30;2.63;;;;;;;21.40;83.38;99539.22;10445762;28;20121;-67
2023/09/21 17:24:42;;;;;;;7.40;3.03;;;;;;;21.14;86.08;99554.84;10446632;28;20579;-67
2023/09/21 17:30:06;;;;;;;5.93;3.33;;;;;;;20.88;86.54;99633.53;10457492;28;20052;-66
2023/09/21 17:35:28;;;;;;;7.80;3.80;;;;;;;20.45;91.60;99603.38;10447321;28;20169;-65
2023/09/21 17:40:50;;;;;;;5.10;3.35;;;;;;;20.07;91.32;99606.78;10444180;28;20416;-65
2023/09/21 17:46:11;;;;;;;5.10;3.45;;;;;;;19.79;93.42;99615.44;10449074;28;20044;-65
2023/09/21 17:51:33;;;;;;;6.50;4.35;;;;;;;19.57;93.08;99610.38;10444947;28;20453;-65
2023/09/21 17:56:55;;;;;;;7.85;5.13;;;;;;;19.46;96.33;99657.72;10450091;28;20044;-65
2023/09/21 18:02:18;;;;;;;7.68;4.40;;;;;;;19.16;96.50;99716.19;10429879;28;20045;-65
2023/09/21 18:07:40;;;;;;;29.08;5.53;;;;;;;19.10;100.00;99700.16;10432590;28;20118;-65
2023/09/21 18:13:02;;;;;;;9.48;2.60;;;;;;;19.08;100.00;99677.47;10441666;28;20045;-65
2023/09/21 18:18:27;;;;;;;;;;;;;;;19.08;100.00;99687.16;10434929;28;20052;-65
2023/09/21 18:23:51;;;;;;;16.23;1.90;;;;;;;19.02;100.00;99670.16;10435881;28;19932;-65
2023/09/21 18:29:12;;;;;;;4.40;1.20;;;;;;;18.93;100.00;99665.66;10441598;28;20055;-65
2023/09/21 18:34:34;;;;;;;2.25;1.50;;;;;;;18.95;100.00;99691.75;10432306;28;20107;-65
2023/09/21 18:39:56;;;;;;;2.40;1.50;;;;;;;18.92;100.00;99699.84;10439340;28;20052;-65
2023/09/21 18:45:19;;;;;;;2.47;1.67;;;;;;;18.87;100.00;99688.91;10441187;28;21253;-65
2023/09/21 18:50:41;;;;;;;1.33;1.23;;;;;;;18.77;100.00;99670.50;10444619;28;20092;-65
2023/09/21 18:56:06;;;;;;;3.05;1.60;;;;;;;18.76;100.00;99663.59;10436737;28;20099;-67
2023/09/21 19:01:34;;;;;;;3.00;1.63;;;;;;;18.74;100.00;99647.16;10442395;28;20059;-67
2023/09/21 19:06:55;;;;;;;5.15;1.50;;;;;;;18.72;100.00;99628.09;10442644;28;20078;-65
2023/09/21 19:12:17;;;;;;;4.22;1.45;;;;;;;18.65;100.00;99621.72;10450853;28;20555;-67
2023/09/21 19:17:40;;;;;;;2.10;1.42;;;;;;;18.61;100.00;99607.19;10438159;28;20053;-69
2023/09/21 19:23:03;;;;;;;4.38;1.58;;;;;;;18.59;100.00;99616.97;10447073;28;20045;-65
2023/09/21 19:28:27;;;;;;;3.95;1.42;;;;;;;18.62;100.00;99611.50;10434628;28;20065;-65
2023/09/21 19:33:48;;;;;;;1.90;1.65;;;;;;;18.62;100.00;99611.50;10440159;28;20048;-65
2023/09/21 19:39:11;;;;;;;3.50;1.20;;;;;;;18.58;100.00;99610.06;10441625;28;20591;-65
2023/09/21 19:44:32;;;;;;;1.33;1.20;;;;;;;18.54;100.00;99600.78;10444678;28;20045;-66
2023/09/21 19:49:54;;;;;;;1.67;1.00;;;;;;;18.53;100.00;99606.16;10447129;28;20040;-66
2023/09/21 19:55:15;;;;;;;4.53;1.20;;;;;;;18.44;100.00;99618.22;10442739;28;20036;-67
2023/09/21 20:00:41;;;;;;;1.33;1.10;;;;;;;18.42;100.00;99624.56;10443256;28;20048;-66
2023/09/21 20:06:02;;;;;;;1.52;1.10;;;;;;;18.38;100.00;99618.69;10452049;28;20627;-67
2023/09/21 20:11:24;;;;;;;1.80;1.00;;;;;;;18.32;100.00;99608.72;10438787;28;20040;-67
2023/09/21 20:16:46;;;;;;;2.22;1.10;;;;;;;18.28;100.00;99609.06;10448383;28;20374;-65
2023/09/21 20:22:08;;;;;;;2.05;1.00;;;;;;;18.21;100.00;99619.22;10444256;28;20060;-65
2023/09/21 20:27:30;;;;;;;2.33;1.10;;;;;;;18.18;100.00;99611.63;10446894;28;20382;-65
2023/09/21 20:32:52;;;;;;;2.88;1.38;;;;;;;18.15;100.00;99611.84;10458932;28;20075;-65
2023/09/21 20:38:14;;;;;;;3.30;1.30;;;;;;;18.12;100.00;99606.03;10445701;28;20540;-65
2023/09/21 20:43:37;;;;;;;1.33;0.98;;;;;;;18.17;100.00;99615.19;10444165;28;20168;-65
2023/09/21 20:48:59;;;;;;;1.95;1.30;;;;;;;18.20;100.00;99608.88;10429220;28;20053;-65
2023/09/21 20:54:22;;;;;;;3.10;1.30;;;;;;;18.13;100.00;99608.53;10449271;28;20059;-65
2023/09/21 20:59:44;;;;;;;2.10;1.58;;;;;;;18.16;100.00;99617.94;10444690;28;20055;-65
2023/09/21 21:05:05;;;;;;;2.70;1.70;;;;;;;18.14;100.00;99622.47;10439704;28;20045;-65
2023/09/21 21:10:27;;;;;;;2.95;1.60;;;;;;;18.12;100.00;99627.81;10427320;28;20523;-66
2023/09/21 21:15:50;;;;;;;5.50;1.45;;;;;;;18.12;100.00;99633.06;10447235;28;20048;-66
2023/09/21 21:21:11;;;;;;;3.20;1.52;;;;;;;18.11;100.00;99623.56;10441834;28;20532;-66
2023/09/21 21:26:33;;;;;;;3.70;1.90;;;;;;;18.08;100.00;99626.41;10444305;28;20036;-66
2023/09/21 21:31:55;;;;;;;4.32;1.90;;;;;;;18.06;100.00;99617.84;10436968;28;20037;-65
2023/09/21 21:37:17;;;;;;;2.90;2.22;;;;;;;17.98;100.00;99618.44;10437128;28;20045;-65
2023/09/21 21:42:42;;;;;;;3.17;2.33;;;;;;;18.04;100.00;99619.75;10446936;28;20044;-65
2023/09/21 21:48:05;;;;;;;4.45;2.28;;;;;;;18.07;100.00;99619.50;10449044;28;20045;-66
2023/09/21 21:53:29;;;;;;;4.93;2.72;;;;;;;18.04;100.00;99611.88;10449510;28;20224;-65
2023/09/21 21:58:50;;;;;;;5.55;2.92;;;;;;;18.04;100.00;99622.34;10437615;28;20384;-65
2023/09/21 22:04:12;;;;;;;4.00;3.15;;;;;;;18.03;100.00;99634.66;10438306;28;20037;-65
2023/09/21 22:09:34;;;;;;;4.07;3.65;;;;;;;18.04;100.00;99636.28;10445868;28;20420;-66
2023/09/21 22:14:55;;;;;;;5.40;3.70;;;;;;;18.01;100.00;99633.94;10448473;28;20501;-66
2023/09/21 22:20:19;;;;;;;4.38;4.05;;;;;;;17.99;100.00;99648.09;10440124;28;20067;-66
2023/09/21 22:25:43;;;;;;;4.20;3.80;;;;;;;17.89;100.00;99658.44;10455914;28;20052;-66
2023/09/21 22:31:05;;;;;;;3.00;1.80;;;;;;;17.78;99.75;99670.72;10453789;28;20419;-66
2023/09/21 22:36:28;;;;;;;1.35;1.25;;;;;;;17.60;100.00;99666.94;10450272;28;20041;-65
2023/09/21 22:41:50;;;;;;;1.45;1.10;;;;;;;17.46;100.00;99667.94;10455754;28;20071;-66
2023/09/21 22:47:11;;;;;;;1.58;0.88;;;;;;;17.32;99.27;99676.03;10452186;28;20048;-65
2023/09/21 22:52:33;;;;;;;1.00;0.90;;;;;;;17.20;100.00;99679.56;10442526;28;20393;-66
2023/09/21 22:57:55;;;;;;;1.33;1.23;;;;;;;17.16;100.00;99682.53;10449387;28;20073;-66
2023/09/21 23:03:18;;;;;;;1.60;1.10;;;;;;;17.21;100.00;99696.91;10449417;28;20400;-66
2023/09/21 23:08:39;;;;;;;0.85;0.60;;;;;;;17.10;100.00;99710.78;10451498;28;20048;-66
2023/09/21 23:14:01;;;;;;;0.68;0.57;;;;;;;17.07;100.00;99699.72;10443168;28;20041;-65
2023/09/21 23:19:23;;;;;;;1.85;0.50;;;;;;;17.01;100.00;99711.47;10447918;28;20049;-66
2023/09/21 23:24:47;;;;;;;0.63;0.50;;;;;;;17.01;100.00;99721.91;10454343;28;20030;-66
2023/09/21 23:30:12;;;;;;;0.45;0.45;;;;;;;16.96;100.00;99729.28;10446966;28;20052;-66
2023/09/21 23:35:34;;;;;;;2.22;0.57;;;;;;;16.90;100.00;99734.13;10455059;28;20053;-66
2023/09/21 23:40:55;;;;;;;0.70;0.70;;;;;;;16.89;100.00;99746.38;10447196;28;20048;-65
2023/09/21 23:46:18;;;;;;;1.42;0.90;;;;;;;16.88;100.00;99736.84;10446316;28;20489;-65
2023/09/21 23:51:40;;;;;;;2.38;1.20;;;;;;;16.85;100.00;99736.22;10462757;28;20049;-63
2023/09/21 23:57:05;;;;;;;3.00;1.50;;;;;;;16.84;100.00;99729.34;10451799;28;20052;-64
